sensor_id;sensor_type;location;lat;lon;timestamp;pressure;altitude;pressure_sealevel;temperature;humidity
74466;BME280;62916;50.044;15.938;2022-11-20T00:00:03;98775.81;;;21.57;43.00
74466;BME280;62916;50.044;15.938;2022-11-20T00:02:33;98774.48;;;21.60;42.75
74466;BME280;62916;50.044;15.938;2022-11-20T00:05:05;98771.70;;;21.59;42.83
74466;BME280;62916;50.044;15.938;2022-11-20T00:07:36;98772.11;;;21.57;42.82
74466;BME280;62916;50.044;15.938;2022-11-20T00:10:08;98764.78;;;21.55;42.86
74466;BME280;62916;50.044;15.938;2022-11-20T00:12:39;98762.98;;;21.55;42.75
74466;BME280;62916;50.044;15.938;2022-11-20T00:15:11;98760.56;;;21.57;42.77
74466;BME280;62916;50.044;15.938;2022-11-20T00:17:42;98756.91;;;21.58;42.61
74466;BME280;62916;50.044;15.938;2022-11-20T00:20:14;98757.67;;;21.53;42.80
74466;BME280;62916;50.044;15.938;2022-11-20T00:22:44;98747.00;;;21.51;42.79
74466;BME280;62916;50.044;15.938;2022-11-20T00:25:16;98753.89;;;21.52;42.81
74466;BME280;62916;50.044;15.938;2022-11-20T00:27:47;98746.51;;;21.49;42.98
74466;BME280;62916;50.044;15.938;2022-11-20T00:30:18;98743.09;;;21.43;42.94
74466;BME280;62916;50.044;15.938;2022-11-20T00:32:49;98742.66;;;21.39;42.82
74466;BME280;62916;50.044;15.938;2022-11-20T00:35:20;98736.09;;;21.36;43.02
74466;BME280;62916;50.044;15.938;2022-11-20T00:37:51;98737.71;;;21.34;43.02
74466;BME280;62916;50.044;15.938;2022-11-20T00:40:21;98744.48;;;21.32;43.04
74466;BME280;62916;50.044;15.938;2022-11-20T00:42:52;98743.45;;;21.27;43.11
74466;BME280;62916;50.044;15.938;2022-11-20T00:45:23;98749.80;;;21.22;42.99
74466;BME280;62916;50.044;15.938;2022-11-20T00:47:53;98750.13;;;21.17;43.16
74466;BME280;62916;50.044;15.938;2022-11-20T00:50:24;98749.36;;;21.16;43.12
74466;BME280;62916;50.044;15.938;2022-11-20T00:52:55;98753.77;;;21.12;43.17
74466;BME280;62916;50.044;15.938;2022-11-20T00:55:26;98752.58;;;21.06;43.15
74466;BME280;62916;50.044;15.938;2022-11-20T00:57:57;98751.45;;;21.01;43.40
74466;BME280;62916;50.044;15.938;2022-11-20T01:00:32;98750.38;;;20.99;43.27
74466;BME280;62916;50.044;15.938;2022-11-20T01:03:03;98753.14;;;20.99;43.20
74466;BME280;62916;50.044;15.938;2022-11-20T01:05:36;98751.55;;;20.98;43.19
74466;BME280;62916;50.044;15.938;2022-11-20T01:08:10;98749.49;;;20.95;43.41
74466;BME280;62916;50.044;15.938;2022-11-20T01:10:41;98746.24;;;20.92;43.36
74466;BME280;62916;50.044;15.938;2022-11-20T01:13:11;98736.35;;;20.84;43.46
74466;BME280;62916;50.044;15.938;2022-11-20T01:16:17;98751.71;;;20.90;43.33
74466;BME280;62916;50.044;15.938;2022-11-20T01:18:50;98747.34;;;20.90;43.48
74466;BME280;62916;50.044;15.938;2022-11-20T01:21:23;98752.70;;;20.91;43.44
74466;BME280;62916;50.044;15.938;2022-11-20T01:23:55;98752.17;;;20.90;43.37
74466;BME280;62916;50.044;15.938;2022-11-20T01:26:29;98751.71;;;20.89;43.32
74466;BME280;62916;50.044;15.938;2022-11-20T01:29:01;98746.48;;;20.83;43.42
74466;BME280;62916;50.044;15.938;2022-11-20T01:31:33;98755.84;;;20.84;43.56
74466;BME280;62916;50.044;15.938;2022-11-20T01:34:05;98751.62;;;20.82;43.52
74466;BME280;62916;50.044;15.938;2022-11-20T01:36:37;98749.45;;;20.78;43.44
74466;BME280;62916;50.044;15.938;2022-11-20T01:39:12;98747.77;;;20.78;43.48
74466;BME280;62916;50.044;15.938;2022-11-20T01:41:44;98742.63;;;20.79;43.55
74466;BME280;62916;50.044;15.938;2022-11-20T01:44:56;98740.14;;;20.79;43.49
74466;BME280;62916;50.044;15.938;2022-11-20T01:47:35;98731.79;;;20.76;43.35
74466;BME280;62916;50.044;15.938;2022-11-20T01:50:11;98734.20;;;20.79;43.34
74466;BME280;62916;50.044;15.938;2022-11-20T01:52:48;98719.29;;;20.74;43.29
74466;BME280;62916;50.044;15.938;2022-11-20T01:55:22;98730.52;;;20.78;43.32
74466;BME280;62916;50.044;15.938;2022-11-20T01:57:54;98731.39;;;20.81;43.16
74466;BME280;62916;50.044;15.938;2022-11-20T02:00:25;98729.27;;;20.82;43.18
74466;BME280;62916;50.044;15.938;2022-11-20T02:02:58;98726.79;;;20.84;43.16
74466;BME280;62916;50.044;15.938;2022-11-20T02:05:35;98726.61;;;20.87;42.88
74466;BME280;62916;50.044;15.938;2022-11-20T02:08:08;98724.48;;;20.89;42.93
74466;BME280;62916;50.044;15.938;2022-11-20T02:10:39;98725.55;;;20.90;42.85
74466;BME280;62916;50.044;15.938;2022-11-20T02:13:09;98727.08;;;20.90;42.72
74466;BME280;62916;50.044;15.938;2022-11-20T02:15:58;98731.02;;;20.90;42.56
74466;BME280;62916;50.044;15.938;2022-11-20T02:18:30;98729.59;;;20.89;42.58
74466;BME280;62916;50.044;15.938;2022-11-20T02:21:06;98730.05;;;20.89;42.54
74466;BME280;62916;50.044;15.938;2022-11-20T02:26:17;98728.08;;;20.83;42.91
74466;BME280;62916;50.044;15.938;2022-11-20T02:28:48;98722.94;;;20.81;42.77
74466;BME280;62916;50.044;15.938;2022-11-20T02:31:20;98719.77;;;20.79;42.83
74466;BME280;62916;50.044;15.938;2022-11-20T02:33:55;98717.93;;;20.78;42.89
74466;BME280;62916;50.044;15.938;2022-11-20T02:36:29;98719.95;;;20.79;42.81
74466;BME280;62916;50.044;15.938;2022-11-20T02:39:01;98715.88;;;20.80;42.73
74466;BME280;62916;50.044;15.938;2022-11-20T02:41:37;98715.91;;;20.77;42.82
74466;BME280;62916;50.044;15.938;2022-11-20T02:44:08;98717.70;;;20.76;42.62
74466;BME280;62916;50.044;15.938;2022-11-20T02:46:39;98711.46;;;20.75;42.80
74466;BME280;62916;50.044;15.938;2022-11-20T02:49:10;98713.70;;;20.75;42.80
74466;BME280;62916;50.044;15.938;2022-11-20T02:51:40;98709.27;;;20.73;42.82
74466;BME280;62916;50.044;15.938;2022-11-20T02:54:11;98706.38;;;20.65;43.07
74466;BME280;62916;50.044;15.938;2022-11-20T02:56:42;98702.48;;;20.62;42.98
74466;BME280;62916;50.044;15.938;2022-11-20T02:59:13;98708.02;;;20.64;43.00
74466;BME280;62916;50.044;15.938;2022-11-20T03:01:44;98711.42;;;20.59;43.11
74466;BME280;62916;50.044;15.938;2022-11-20T03:04:15;98715.30;;;20.59;42.85
74466;BME280;62916;50.044;15.938;2022-11-20T03:06:46;98714.27;;;20.58;42.88
74466;BME280;62916;50.044;15.938;2022-11-20T03:09:17;98716.56;;;20.61;42.97
74466;BME280;62916;50.044;15.938;2022-11-20T03:11:48;98715.58;;;20.62;42.83
74466;BME280;62916;50.044;15.938;2022-11-20T03:14:19;98716.16;;;20.61;42.72
74466;BME280;62916;50.044;15.938;2022-11-20T03:16:49;98716.23;;;20.57;42.70
74466;BME280;62916;50.044;15.938;2022-11-20T03:19:20;98721.86;;;20.53;42.95
74466;BME280;62916;50.044;15.938;2022-11-20T03:21:52;98723.95;;;20.51;43.01
74466;BME280;62916;50.044;15.938;2022-11-20T03:24:23;98728.59;;;20.49;42.88
74466;BME280;62916;50.044;15.938;2022-11-20T03:26:53;98725.06;;;20.45;43.01
74466;BME280;62916;50.044;15.938;2022-11-20T03:29:25;98729.70;;;20.46;43.00
74466;BME280;62916;50.044;15.938;2022-11-20T03:31:56;98732.81;;;20.42;42.94
74466;BME280;62916;50.044;15.938;2022-11-20T03:34:26;98733.56;;;20.39;43.03
74466;BME280;62916;50.044;15.938;2022-11-20T03:36:57;98735.33;;;20.39;42.95
74466;BME280;62916;50.044;15.938;2022-11-20T03:39:28;98734.75;;;20.42;43.10
74466;BME280;62916;50.044;15.938;2022-11-20T03:41:59;98729.32;;;20.44;43.00
74466;BME280;62916;50.044;15.938;2022-11-20T03:44:30;98730.23;;;20.47;42.74
74466;BME280;62916;50.044;15.938;2022-11-20T03:47:01;98730.94;;;20.46;42.81
74466;BME280;62916;50.044;15.938;2022-11-20T03:49:33;98731.48;;;20.46;42.79
74466;BME280;62916;50.044;15.938;2022-11-20T03:52:04;98729.70;;;20.46;42.78
74466;BME280;62916;50.044;15.938;2022-11-20T03:54:35;98727.34;;;20.47;42.77
74466;BME280;62916;50.044;15.938;2022-11-20T03:57:06;98723.02;;;20.46;42.81
74466;BME280;62916;50.044;15.938;2022-11-20T03:59:37;98722.33;;;20.44;42.68
74466;BME280;62916;50.044;15.938;2022-11-20T04:02:08;98722.73;;;20.44;42.53
74466;BME280;62916;50.044;15.938;2022-11-20T04:04:39;98720.41;;;20.44;42.66
74466;BME280;62916;50.044;15.938;2022-11-20T04:07:10;98720.86;;;20.42;42.69
74466;BME280;62916;50.044;15.938;2022-11-20T04:09:40;98717.30;;;20.39;42.67
74466;BME280;62916;50.044;15.938;2022-11-20T04:12:11;98719.13;;;20.38;42.48
74466;BME280;62916;50.044;15.938;2022-11-20T04:14:42;98718.84;;;20.34;42.70
74466;BME280;62916;50.044;15.938;2022-11-20T04:17:13;98716.04;;;20.34;42.70
74466;BME280;62916;50.044;15.938;2022-11-20T04:19:43;98700.16;;;20.30;42.56
74466;BME280;62916;50.044;15.938;2022-11-20T04:22:14;98705.95;;;20.30;42.52
74466;BME280;62916;50.044;15.938;2022-11-20T04:24:45;98704.66;;;20.24;42.70
74466;BME280;62916;50.044;15.938;2022-11-20T04:27:15;98701.77;;;20.19;42.93
74466;BME280;62916;50.044;15.938;2022-11-20T04:29:46;98701.35;;;20.17;42.92
74466;BME280;62916;50.044;15.938;2022-11-20T04:32:17;98704.73;;;20.16;42.82
74466;BME280;62916;50.044;15.938;2022-11-20T04:34:48;98702.17;;;20.16;42.80
74466;BME280;62916;50.044;15.938;2022-11-20T04:37:19;98705.17;;;20.18;42.71
74466;BME280;62916;50.044;15.938;2022-11-20T04:39:49;98701.30;;;20.20;42.82
74466;BME280;62916;50.044;15.938;2022-11-20T04:42:20;98705.33;;;20.18;42.88
74466;BME280;62916;50.044;15.938;2022-11-20T04:45:00;98702.83;;;20.16;42.98
74466;BME280;62916;50.044;15.938;2022-11-20T04:47:31;98702.09;;;20.14;42.88
74466;BME280;62916;50.044;15.938;2022-11-20T04:50:02;98700.75;;;20.15;42.80
74466;BME280;62916;50.044;15.938;2022-11-20T04:52:33;98695.63;;;20.12;43.02
74466;BME280;62916;50.044;15.938;2022-11-20T04:55:05;98694.95;;;20.10;43.00
74466;BME280;62916;50.044;15.938;2022-11-20T04:57:36;98694.95;;;20.10;42.92
74466;BME280;62916;50.044;15.938;2022-11-20T05:00:10;98691.96;;;20.06;42.76
74466;BME280;62916;50.044;15.938;2022-11-20T05:02:41;98689.23;;;20.09;42.95
74466;BME280;62916;50.044;15.938;2022-11-20T05:05:12;98687.56;;;20.09;42.92
74466;BME280;62916;50.044;15.938;2022-11-20T05:07:43;98686.05;;;20.03;43.09
74466;BME280;62916;50.044;15.938;2022-11-20T05:10:14;98683.26;;;19.96;43.06
74466;BME280;62916;50.044;15.938;2022-11-20T05:12:45;98679.94;;;19.91;43.12
74466;BME280;62916;50.044;15.938;2022-11-20T05:15:16;98679.20;;;19.89;43.27
74466;BME280;62916;50.044;15.938;2022-11-20T05:17:50;98678.71;;;19.91;43.19
74466;BME280;62916;50.044;15.938;2022-11-20T05:20:22;98682.99;;;19.93;43.12
74466;BME280;62916;50.044;15.938;2022-11-20T05:22:52;98674.28;;;19.90;42.92
74466;BME280;62916;50.044;15.938;2022-11-20T05:25:24;98680.23;;;19.96;43.04
74466;BME280;62916;50.044;15.938;2022-11-20T05:27:55;98680.76;;;19.94;42.99
74466;BME280;62916;50.044;15.938;2022-11-20T05:30:26;98682.77;;;19.94;43.01
74466;BME280;62916;50.044;15.938;2022-11-20T05:32:57;98683.19;;;19.97;42.93
74466;BME280;62916;50.044;15.938;2022-11-20T05:35:28;98682.73;;;19.99;42.80
74466;BME280;62916;50.044;15.938;2022-11-20T05:37:59;98681.06;;;19.98;42.73
74466;BME280;62916;50.044;15.938;2022-11-20T05:40:30;98682.96;;;19.95;42.83
74466;BME280;62916;50.044;15.938;2022-11-20T05:43:00;98682.44;;;19.94;42.82
74466;BME280;62916;50.044;15.938;2022-11-20T05:45:31;98686.93;;;19.93;42.78
74466;BME280;62916;50.044;15.938;2022-11-20T05:48:02;98689.20;;;19.90;42.90
74466;BME280;62916;50.044;15.938;2022-11-20T05:50:33;98688.84;;;19.89;42.90
74466;BME280;62916;50.044;15.938;2022-11-20T05:53:03;98691.33;;;19.86;42.94
74466;BME280;62916;50.044;15.938;2022-11-20T05:55:34;98690.64;;;19.85;42.93
74466;BME280;62916;50.044;15.938;2022-11-20T05:58:05;98688.22;;;19.81;42.98
74466;BME280;62916;50.044;15.938;2022-11-20T06:00:36;98687.35;;;19.80;42.95
74466;BME280;62916;50.044;15.938;2022-11-20T06:03:07;98689.95;;;19.79;42.99
74466;BME280;62916;50.044;15.938;2022-11-20T06:05:37;98691.23;;;19.76;42.96
74466;BME280;62916;50.044;15.938;2022-11-20T06:08:08;98691.04;;;19.76;42.99
74466;BME280;62916;50.044;15.938;2022-11-20T06:10:39;98684.16;;;19.75;42.88
74466;BME280;62916;50.044;15.938;2022-11-20T06:13:09;98680.37;;;19.71;43.01
74466;BME280;62916;50.044;15.938;2022-11-20T06:15:40;98674.60;;;19.69;43.15
74466;BME280;62916;50.044;15.938;2022-11-20T06:18:11;98674.30;;;19.70;43.17
74466;BME280;62916;50.044;15.938;2022-11-20T06:20:41;98674.38;;;19.71;43.04
74466;BME280;62916;50.044;15.938;2022-11-20T06:23:12;98670.73;;;19.73;43.09
74466;BME280;62916;50.044;15.938;2022-11-20T06:25:44;98674.33;;;19.67;43.30
74466;BME280;62916;50.044;15.938;2022-11-20T06:28:15;98671.13;;;19.61;43.39
74466;BME280;62916;50.044;15.938;2022-11-20T06:30:47;98672.48;;;19.59;43.49
74466;BME280;62916;50.044;15.938;2022-11-20T06:33:18;98672.18;;;19.60;43.54
74466;BME280;62916;50.044;15.938;2022-11-20T06:35:49;98672.80;;;19.62;43.60
74466;BME280;62916;50.044;15.938;2022-11-20T06:38:28;98673.61;;;19.66;43.74
74466;BME280;62916;50.044;15.938;2022-11-20T06:40:58;98671.03;;;19.70;43.72
74466;BME280;62916;50.044;15.938;2022-11-20T06:43:30;98669.14;;;19.75;43.73
74466;BME280;62916;50.044;15.938;2022-11-20T06:46:00;98673.10;;;19.78;43.91
74466;BME280;62916;50.044;15.938;2022-11-20T06:48:31;98669.82;;;19.83;43.85
74466;BME280;62916;50.044;15.938;2022-11-20T06:51:04;98669.25;;;19.87;43.74
74466;BME280;62916;50.044;15.938;2022-11-20T06:53:36;98671.69;;;19.90;43.87
74466;BME280;62916;50.044;15.938;2022-11-20T06:56:08;98674.03;;;19.93;43.98
74466;BME280;62916;50.044;15.938;2022-11-20T06:58:39;98673.48;;;19.96;44.02
74466;BME280;62916;50.044;15.938;2022-11-20T07:01:11;98669.86;;;20.00;43.96
74466;BME280;62916;50.044;15.938;2022-11-20T07:03:43;98673.54;;;20.05;43.81
74466;BME280;62916;50.044;15.938;2022-11-20T07:06:19;98672.00;;;20.09;43.99
74466;BME280;62916;50.044;15.938;2022-11-20T07:08:51;98673.44;;;20.12;43.89
74466;BME280;62916;50.044;15.938;2022-11-20T07:11:23;98681.13;;;20.15;43.85
74466;BME280;62916;50.044;15.938;2022-11-20T07:13:53;98682.77;;;20.19;43.95
74466;BME280;62916;50.044;15.938;2022-11-20T07:16:24;98678.56;;;20.24;43.93
74466;BME280;62916;50.044;15.938;2022-11-20T07:18:55;98671.81;;;20.26;43.93
74466;BME280;62916;50.044;15.938;2022-11-20T07:21:25;98663.73;;;20.27;43.95
74466;BME280;62916;50.044;15.938;2022-11-20T07:23:57;98648.87;;;20.25;43.77
74466;BME280;62916;50.044;15.938;2022-11-20T07:26:27;98657.05;;;20.34;43.97
74466;BME280;62916;50.044;15.938;2022-11-20T07:28:58;98659.15;;;20.35;43.88
74466;BME280;62916;50.044;15.938;2022-11-20T07:31:29;98664.04;;;20.38;43.91
74466;BME280;62916;50.044;15.938;2022-11-20T07:34:00;98665.81;;;20.42;43.70
74466;BME280;62916;50.044;15.938;2022-11-20T07:36:31;98662.10;;;20.42;43.80
74466;BME280;62916;50.044;15.938;2022-11-20T07:39:01;98660.23;;;20.42;43.83
74466;BME280;62916;50.044;15.938;2022-11-20T07:41:32;98657.68;;;20.46;43.83
74466;BME280;62916;50.044;15.938;2022-11-20T07:44:03;98655.86;;;20.47;43.47
74466;BME280;62916;50.044;15.938;2022-11-20T07:46:34;98658.55;;;20.41;43.41
74466;BME280;62916;50.044;15.938;2022-11-20T07:49:05;98663.41;;;20.36;43.25
74466;BME280;62916;50.044;15.938;2022-11-20T07:51:36;98668.42;;;20.32;43.03
74466;BME280;62916;50.044;15.938;2022-11-20T07:54:07;98675.73;;;20.23;42.92
74466;BME280;62916;50.044;15.938;2022-11-20T07:56:38;98675.20;;;20.17;42.62
74466;BME280;62916;50.044;15.938;2022-11-20T07:59:09;98676.50;;;20.09;42.52
74466;BME280;62916;50.044;15.938;2022-11-20T08:01:41;98676.95;;;20.02;42.32
74466;BME280;62916;50.044;15.938;2022-11-20T08:04:12;98677.02;;;19.92;42.27
74466;BME280;62916;50.044;15.938;2022-11-20T08:06:45;98676.44;;;19.87;42.14
74466;BME280;62916;50.044;15.938;2022-11-20T08:09:16;98672.52;;;19.81;42.13
74466;BME280;62916;50.044;15.938;2022-11-20T08:11:47;98674.35;;;19.74;41.88
74466;BME280;62916;50.044;15.938;2022-11-20T08:14:36;98672.13;;;19.64;42.03
74466;BME280;62916;50.044;15.938;2022-11-20T08:17:07;98668.50;;;19.57;41.97
74466;BME280;62916;50.044;15.938;2022-11-20T08:19:37;98667.30;;;19.49;41.93
74466;BME280;62916;50.044;15.938;2022-11-20T08:22:08;98662.42;;;19.48;41.79
74466;BME280;62916;50.044;15.938;2022-11-20T08:24:39;98658.05;;;19.60;41.68
74466;BME280;62916;50.044;15.938;2022-11-20T08:27:09;98659.13;;;19.67;41.62
74466;BME280;62916;50.044;15.938;2022-11-20T08:29:40;98666.98;;;19.74;41.56
74466;BME280;62916;50.044;15.938;2022-11-20T08:32:11;98664.48;;;19.76;41.45
74466;BME280;62916;50.044;15.938;2022-11-20T08:34:42;98659.59;;;19.76;41.46
74466;BME280;62916;50.044;15.938;2022-11-20T08:37:12;98662.77;;;19.75;41.43
74466;BME280;62916;50.044;15.938;2022-11-20T08:39:43;98665.45;;;19.76;41.37
74466;BME280;62916;50.044;15.938;2022-11-20T08:42:14;98662.20;;;19.76;41.50
74466;BME280;62916;50.044;15.938;2022-11-20T08:44:45;98657.61;;;19.73;41.54
74466;BME280;62916;50.044;15.938;2022-11-20T08:47:16;98656.52;;;19.72;41.54
74466;BME280;62916;50.044;15.938;2022-11-20T08:49:46;98652.73;;;19.76;41.60
74466;BME280;62916;50.044;15.938;2022-11-20T08:52:17;98645.50;;;19.77;41.52
74466;BME280;62916;50.044;15.938;2022-11-20T08:54:48;98652.91;;;19.84;41.56
74466;BME280;62916;50.044;15.938;2022-11-20T08:57:19;98647.84;;;19.88;41.60
74466;BME280;62916;50.044;15.938;2022-11-20T08:59:50;98649.72;;;19.93;41.57
74466;BME280;62916;50.044;15.938;2022-11-20T09:02:35;98651.99;;;19.97;41.51
74466;BME280;62916;50.044;15.938;2022-11-20T09:05:07;98650.06;;;20.01;41.71
74466;BME280;62916;50.044;15.938;2022-11-20T09:07:38;98643.77;;;20.08;41.67
74466;BME280;62916;50.044;15.938;2022-11-20T09:10:10;98638.42;;;20.19;41.63
74466;BME280;62916;50.044;15.938;2022-11-20T09:12:57;98640.85;;;20.29;41.41
74466;BME280;62916;50.044;15.938;2022-11-20T09:15:28;98635.58;;;20.37;41.25
74466;BME280;62916;50.044;15.938;2022-11-20T09:18:00;98631.81;;;20.42;41.33
74466;BME280;62916;50.044;15.938;2022-11-20T09:20:32;98627.15;;;20.47;41.50
74466;BME280;62916;50.044;15.938;2022-11-20T09:23:02;98627.34;;;20.52;41.42
74466;BME280;62916;50.044;15.938;2022-11-20T09:25:33;98631.59;;;20.58;41.56
74466;BME280;62916;50.044;15.938;2022-11-20T09:28:04;98628.03;;;20.63;41.23
74466;BME280;62916;50.044;15.938;2022-11-20T09:30:35;98625.65;;;20.68;41.33
74466;BME280;62916;50.044;15.938;2022-11-20T09:33:07;98630.30;;;20.70;41.37
74466;BME280;62916;50.044;15.938;2022-11-20T09:35:38;98632.63;;;20.73;41.34
74466;BME280;62916;50.044;15.938;2022-11-20T09:38:09;98632.45;;;20.77;41.34
74466;BME280;62916;50.044;15.938;2022-11-20T09:40:45;98621.23;;;20.80;41.41
74466;BME280;62916;50.044;15.938;2022-11-20T09:43:21;98617.13;;;20.83;41.49
74466;BME280;62916;50.044;15.938;2022-11-20T09:46:04;98614.39;;;20.87;41.56
74466;BME280;62916;50.044;15.938;2022-11-20T09:48:51;98606.95;;;20.91;41.62
74466;BME280;62916;50.044;15.938;2022-11-20T09:51:37;98599.44;;;20.97;41.51
74466;BME280;62916;50.044;15.938;2022-11-20T09:54:17;98588.55;;;21.00;41.54
74466;BME280;62916;50.044;15.938;2022-11-20T09:56:53;98581.92;;;21.03;41.44
74466;BME280;62916;50.044;15.938;2022-11-20T09:59:33;98577.21;;;21.06;41.63
74466;BME280;62916;50.044;15.938;2022-11-20T10:02:16;98580.16;;;21.09;41.61
74466;BME280;62916;50.044;15.938;2022-11-20T10:04:53;98580.20;;;21.13;41.61
74466;BME280;62916;50.044;15.938;2022-11-20T10:07:32;98577.23;;;21.16;41.58
74466;BME280;62916;50.044;15.938;2022-11-20T10:10:25;98572.59;;;21.18;41.73
74466;BME280;62916;50.044;15.938;2022-11-20T10:13:10;98575.80;;;21.18;41.74
74466;BME280;62916;50.044;15.938;2022-11-20T10:15:45;98573.02;;;21.13;41.78
74466;BME280;62916;50.044;15.938;2022-11-20T10:18:27;98570.34;;;21.09;41.70
74466;BME280;62916;50.044;15.938;2022-11-20T10:21:06;98572.77;;;21.11;41.82
74466;BME280;62916;50.044;15.938;2022-11-20T10:23:50;98575.39;;;21.12;42.02
74466;BME280;62916;50.044;15.938;2022-11-20T10:26:31;98571.94;;;21.11;42.07
74466;BME280;62916;50.044;15.938;2022-11-20T10:29:12;98569.74;;;21.10;41.92
74466;BME280;62916;50.044;15.938;2022-11-20T10:31:47;98571.73;;;21.10;41.92
74466;BME280;62916;50.044;15.938;2022-11-20T10:34:25;98575.75;;;21.11;41.94
74466;BME280;62916;50.044;15.938;2022-11-20T10:37:00;98571.07;;;21.11;42.00
74466;BME280;62916;50.044;15.938;2022-11-20T10:39:39;98567.55;;;21.14;42.00
74466;BME280;62916;50.044;15.938;2022-11-20T10:42:15;98568.21;;;21.16;41.88
74466;BME280;62916;50.044;15.938;2022-11-20T10:44:52;98573.21;;;21.18;41.95
74466;BME280;62916;50.044;15.938;2022-11-20T10:47:35;98572.41;;;21.18;41.82
74466;BME280;62916;50.044;15.938;2022-11-20T10:50:11;98567.24;;;21.24;41.86
74466;BME280;62916;50.044;15.938;2022-11-20T10:52:56;98571.58;;;21.28;41.84
74466;BME280;62916;50.044;15.938;2022-11-20T10:55:38;98566.99;;;21.34;41.90
74466;BME280;62916;50.044;15.938;2022-11-20T10:58:10;98557.96;;;21.38;41.69
74466;BME280;62916;50.044;15.938;2022-11-20T11:00:44;98554.98;;;21.40;41.64
74466;BME280;62916;50.044;15.938;2022-11-20T11:03:25;98559.72;;;21.40;41.87
74466;BME280;62916;50.044;15.938;2022-11-20T11:06:03;98560.83;;;21.39;41.90
74466;BME280;62916;50.044;15.938;2022-11-20T11:08:39;98549.25;;;21.38;41.94
74466;BME280;62916;50.044;15.938;2022-11-20T11:11:20;98539.31;;;21.35;42.05
74466;BME280;62916;50.044;15.938;2022-11-20T11:13:52;98538.00;;;21.33;42.08
74466;BME280;62916;50.044;15.938;2022-11-20T11:16:25;98540.30;;;21.30;42.29
74466;BME280;62916;50.044;15.938;2022-11-20T11:19:04;98535.14;;;21.24;42.31
74466;BME280;62916;50.044;15.938;2022-11-20T11:21:35;98545.38;;;21.24;42.41
74466;BME280;62916;50.044;15.938;2022-11-20T11:24:21;98533.64;;;21.22;42.26
74466;BME280;62916;50.044;15.938;2022-11-20T11:27:14;98535.50;;;21.21;42.65
74466;BME280;62916;50.044;15.938;2022-11-20T11:29:48;98529.89;;;21.20;42.75
74466;BME280;62916;50.044;15.938;2022-11-20T11:32:20;98522.46;;;21.21;42.53
74466;BME280;62916;50.044;15.938;2022-11-20T11:35:02;98524.98;;;21.21;42.62
74466;BME280;62916;50.044;15.938;2022-11-20T11:37:36;98515.73;;;21.15;42.55
74466;BME280;62916;50.044;15.938;2022-11-20T11:40:08;98519.46;;;21.17;42.83
74466;BME280;62916;50.044;15.938;2022-11-20T11:42:59;98513.40;;;21.19;42.71
74466;BME280;62916;50.044;15.938;2022-11-20T11:45:31;98507.86;;;21.21;42.93
74466;BME280;62916;50.044;15.938;2022-11-20T11:48:05;98511.56;;;21.22;42.71
74466;BME280;62916;50.044;15.938;2022-11-20T11:50:50;98515.85;;;21.23;42.99
74466;BME280;62916;50.044;15.938;2022-11-20T11:53:23;98519.77;;;21.22;42.89
74466;BME280;62916;50.044;15.938;2022-11-20T11:56:02;98517.34;;;21.20;42.98
74466;BME280;62916;50.044;15.938;2022-11-20T11:58:43;98522.30;;;21.21;42.96
74466;BME280;62916;50.044;15.938;2022-11-20T12:01:24;98520.23;;;21.22;43.00
74466;BME280;62916;50.044;15.938;2022-11-20T12:04:02;98508.68;;;21.23;42.99
74466;BME280;62916;50.044;15.938;2022-11-20T12:06:37;98499.03;;;21.23;43.12
74466;BME280;62916;50.044;15.938;2022-11-20T12:09:12;98504.10;;;21.25;42.91
74466;BME280;62916;50.044;15.938;2022-11-20T12:11:46;98491.83;;;21.24;42.94
74466;BME280;62916;50.044;15.938;2022-11-20T12:14:25;98493.81;;;21.24;43.01
74466;BME280;62916;50.044;15.938;2022-11-20T12:16:58;98510.54;;;21.25;43.02
74466;BME280;62916;50.044;15.938;2022-11-20T12:19:31;98517.06;;;21.29;43.06
74466;BME280;62916;50.044;15.938;2022-11-20T12:22:12;98520.30;;;21.32;43.04
74466;BME280;62916;50.044;15.938;2022-11-20T12:24:54;98516.36;;;21.32;42.95
74466;BME280;62916;50.044;15.938;2022-11-20T12:27:49;98512.08;;;21.31;43.06
74466;BME280;62916;50.044;15.938;2022-11-20T12:30:23;98507.01;;;21.33;43.04
74466;BME280;62916;50.044;15.938;2022-11-20T12:36:19;98498.98;;;21.30;43.19
74466;BME280;62916;50.044;15.938;2022-11-20T12:39:07;98501.65;;;21.28;43.28
74466;BME280;62916;50.044;15.938;2022-11-20T12:41:51;98501.83;;;21.35;43.19
74466;BME280;62916;50.044;15.938;2022-11-20T12:47:51;98498.02;;;21.32;43.25
74466;BME280;62916;50.044;15.938;2022-11-20T12:50:31;98499.91;;;21.29;43.34
74466;BME280;62916;50.044;15.938;2022-11-20T12:53:33;98496.08;;;21.28;43.43
74466;BME280;62916;50.044;15.938;2022-11-20T12:56:15;98496.02;;;21.27;43.39
74466;BME280;62916;50.044;15.938;2022-11-20T12:59:00;98492.67;;;21.27;43.37
74466;BME280;62916;50.044;15.938;2022-11-20T13:01:40;98481.13;;;21.29;43.64
74466;BME280;62916;50.044;15.938;2022-11-20T13:04:27;98474.48;;;21.32;43.44
74466;BME280;62916;50.044;15.938;2022-11-20T13:07:05;98476.43;;;21.34;43.41
74466;BME280;62916;50.044;15.938;2022-11-20T13:09:43;98468.49;;;21.38;43.35
74466;BME280;62916;50.044;15.938;2022-11-20T13:12:20;98461.07;;;21.37;43.55
74466;BME280;62916;50.044;15.938;2022-11-20T13:15:00;98458.81;;;21.33;43.48
74466;BME280;62916;50.044;15.938;2022-11-20T13:17:40;98446.10;;;21.35;43.41
74466;BME280;62916;50.044;15.938;2022-11-20T13:20:17;98443.98;;;21.35;43.49
74466;BME280;62916;50.044;15.938;2022-11-20T13:22:49;98449.25;;;21.36;43.51
74466;BME280;62916;50.044;15.938;2022-11-20T13:25:26;98455.92;;;21.35;43.60
74466;BME280;62916;50.044;15.938;2022-11-20T13:27:59;98463.77;;;21.36;43.46
74466;BME280;62916;50.044;15.938;2022-11-20T13:30:31;98465.85;;;21.38;43.55
74466;BME280;62916;50.044;15.938;2022-11-20T13:33:07;98459.58;;;21.38;43.39